sensor_id;sensor_type;location;lat;lon;timestamp;temperature;humidity
6118;DHT22;3089;48.202;11.510;2023-04-29T00:00:23;10.60;99.90
6118;DHT22;3089;48.202;11.510;2023-04-29T00:02:51;10.70;99.90
6118;DHT22;3089;48.202;11.510;2023-04-29T00:05:19;10.70;99.90
6118;DHT22;3089;48.202;11.510;2023-04-29T00:07:47;10.70;99.90
6118;DHT22;3089;48.202;11.510;2023-04-29T00:10:14;10.70;99.90
6118;DHT22;3089;48.202;11.510;2023-04-29T00:12:42;10.60;99.90
6118;DHT22;3089;48.202;11.510;2023-04-29T00:15:12;10.60;99.90
6118;DHT22;3089;48.202;11.510;2023-04-29T00:17:40;10.60;99.90
6118;DHT22;3089;48.202;11.510;2023-04-29T00:20:08;10.60;99.90
6118;DHT22;3089;48.202;11.510;2023-04-29T00:22:37;10.60;99.90
6118;DHT22;3089;48.202;11.510;2023-04-29T00:25:06;10.60;99.90
6118;DHT22;3089;48.202;11.510;2023-04-29T00:27:34;10.60;99.90
6118;DHT22;3089;48.202;11.510;2023-04-29T00:30:02;10.60;99.90
6118;DHT22;3089;48.202;11.510;2023-04-29T00:32:31;10.60;99.90
6118;DHT22;3089;48.202;11.510;2023-04-29T00:34:59;10.60;99.90
6118;DHT22;3089;48.202;11.510;2023-04-29T00:37:27;10.60;99.90
6118;DHT22;3089;48.202;11.510;2023-04-29T00:39:55;10.60;99.90
6118;DHT22;3089;48.202;11.510;2023-04-29T00:42:24;10.60;99.90
6118;DHT22;3089;48.202;11.510;2023-04-29T00:44:51;10.60;99.90
6118;DHT22;3089;48.202;11.510;2023-04-29T00:47:19;10.50;99.90
6118;DHT22;3089;48.202;11.510;2023-04-29T00:49:49;10.50;99.90
6118;DHT22;3089;48.202;11.510;2023-04-29T00:52:18;10.50;99.90
6118;DHT22;3089;48.202;11.510;2023-04-29T00:54:45;10.50;99.90
6118;DHT22;3089;48.202;11.510;2023-04-29T00:57:14;10.50;99.90
6118;DHT22;3089;48.202;11.510;2023-04-29T00:59:42;10.50;99.90
6118;DHT22;3089;48.202;11.510;2023-04-29T01:02:11;10.50;99.90
6118;DHT22;3089;48.202;11.510;2023-04-29T01:04:40;10.50;99.90
6118;DHT22;3089;48.202;11.510;2023-04-29T01:07:16;10.50;99.90
6118;DHT22;3089;48.202;11.510;2023-04-29T01:09:54;10.50;99.90
6118;DHT22;3089;48.202;11.510;2023-04-29T01:12:32;10.50;99.90
6118;DHT22;3089;48.202;11.510;2023-04-29T01:15:04;10.50;99.90
6118;DHT22;3089;48.202;11.510;2023-04-29T01:17:39;10.50;99.90
6118;DHT22;3089;48.202;11.510;2023-04-29T01:20:08;10.40;99.90
6118;DHT22;3089;48.202;11.510;2023-04-29T01:22:39;10.40;99.90
6118;DHT22;3089;48.202;11.510;2023-04-29T01:25:08;10.40;99.90
6118;DHT22;3089;48.202;11.510;2023-04-29T01:27:44;10.40;99.90
6118;DHT22;3089;48.202;11.510;2023-04-29T01:30:23;10.40;99.90
6118;DHT22;3089;48.202;11.510;2023-04-29T01:32:59;10.40;99.90
6118;DHT22;3089;48.202;11.510;2023-04-29T01:35:40;10.40;99.90
6118;DHT22;3089;48.202;11.510;2023-04-29T01:38:16;10.40;99.90
6118;DHT22;3089;48.202;11.510;2023-04-29T01:40:59;10.40;99.90
6118;DHT22;3089;48.202;11.510;2023-04-29T01:43:33;10.40;99.90
6118;DHT22;3089;48.202;11.510;2023-04-29T01:46:05;10.30;99.90
6118;DHT22;3089;48.202;11.510;2023-04-29T01:48:33;10.30;99.90
6118;DHT22;3089;48.202;11.510;2023-04-29T01:51:02;10.30;99.90
6118;DHT22;3089;48.202;11.510;2023-04-29T01:53:31;10.40;99.90
6118;DHT22;3089;48.202;11.510;2023-04-29T01:56:00;10.30;99.90
6118;DHT22;3089;48.202;11.510;2023-04-29T01:58:28;10.30;99.90
6118;DHT22;3089;48.202;11.510;2023-04-29T02:00:56;10.30;99.90
6118;DHT22;3089;48.202;11.510;2023-04-29T02:03:24;10.40;99.90
6118;DHT22;3089;48.202;11.510;2023-04-29T02:05:52;10.40;99.90
6118;DHT22;3089;48.202;11.510;2023-04-29T02:08:20;10.40;99.90
6118;DHT22;3089;48.202;11.510;2023-04-29T02:10:52;10.40;99.90
6118;DHT22;3089;48.202;11.510;2023-04-29T02:13:21;10.30;99.90
6118;DHT22;3089;48.202;11.510;2023-04-29T02:15:49;10.30;99.90
6118;DHT22;3089;48.202;11.510;2023-04-29T02:18:17;10.30;99.90
6118;DHT22;3089;48.202;11.510;2023-04-29T02:20:45;10.20;99.90
6118;DHT22;3089;48.202;11.510;2023-04-29T02:23:13;10.20;99.90
6118;DHT22;3089;48.202;11.510;2023-04-29T02:25:40;10.20;99.90
6118;DHT22;3089;48.202;11.510;2023-04-29T02:28:08;10.30;99.90
6118;DHT22;3089;48.202;11.510;2023-04-29T02:30:37;10.30;99.90
6118;DHT22;3089;48.202;11.510;2023-04-29T02:33:05;10.20;99.90
6118;DHT22;3089;48.202;11.510;2023-04-29T02:35:34;10.20;99.90
6118;DHT22;3089;48.202;11.510;2023-04-29T02:38:02;10.20;99.90
6118;DHT22;3089;48.202;11.510;2023-04-29T02:40:30;10.20;99.90
6118;DHT22;3089;48.202;11.510;2023-04-29T02:42:58;10.20;99.90
6118;DHT22;3089;48.202;11.510;2023-04-29T02:45:27;10.20;99.90
6118;DHT22;3089;48.202;11.510;2023-04-29T02:47:56;10.30;99.90
6118;DHT22;3089;48.202;11.510;2023-04-29T02:50:24;10.20;99.90
6118;DHT22;3089;48.202;11.510;2023-04-29T02:52:52;10.20;99.90
6118;DHT22;3089;48.202;11.510;2023-04-29T02:55:20;10.20;99.90
6118;DHT22;3089;48.202;11.510;2023-04-29T02:57:48;10.20;99.90
6118;DHT22;3089;48.202;11.510;2023-04-29T03:00:15;10.30;99.90
6118;DHT22;3089;48.202;11.510;2023-04-29T03:02:44;10.30;99.90
6118;DHT22;3089;48.202;11.510;2023-04-29T03:05:13;10.20;99.90
6118;DHT22;3089;48.202;11.510;2023-04-29T03:07:42;10.30;99.90
6118;DHT22;3089;48.202;11.510;2023-04-29T03:10:10;10.20;99.90
6118;DHT22;3089;48.202;11.510;2023-04-29T03:12:38;10.20;99.90
6118;DHT22;3089;48.202;11.510;2023-04-29T03:15:07;10.30;99.90
6118;DHT22;3089;48.202;11.510;2023-04-29T03:17:36;10.20;99.90
6118;DHT22;3089;48.202;11.510;2023-04-29T03:20:05;10.30;99.90
6118;DHT22;3089;48.202;11.510;2023-04-29T03:22:34;10.20;99.90
6118;DHT22;3089;48.202;11.510;2023-04-29T03:25:02;10.20;99.90
6118;DHT22;3089;48.202;11.510;2023-04-29T03:27:30;10.20;99.90
6118;DHT22;3089;48.202;11.510;2023-04-29T03:29:58;10.20;99.90
6118;DHT22;3089;48.202;11.510;2023-04-29T03:32:26;10.20;99.90
6118;DHT22;3089;48.202;11.510;2023-04-29T03:34:54;10.20;99.90
6118;DHT22;3089;48.202;11.510;2023-04-29T03:37:23;10.20;99.90
6118;DHT22;3089;48.202;11.510;2023-04-29T03:39:52;10.20;99.90
6118;DHT22;3089;48.202;11.510;2023-04-29T03:42:20;10.10;99.90
6118;DHT22;3089;48.202;11.510;2023-04-29T03:44:48;10.10;99.90
6118;DHT22;3089;48.202;11.510;2023-04-29T03:47:16;10.10;99.90
6118;DHT22;3089;48.202;11.510;2023-04-29T03:49:43;10.10;99.90
6118;DHT22;3089;48.202;11.510;2023-04-29T03:52:12;10.20;99.90
6118;DHT22;3089;48.202;11.510;2023-04-29T03:54:40;10.20;99.90
6118;DHT22;3089;48.202;11.510;2023-04-29T03:57:09;10.20;99.90
6118;DHT22;3089;48.202;11.510;2023-04-29T03:59:36;10.10;99.90
6118;DHT22;3089;48.202;11.510;2023-04-29T04:02:05;10.20;99.90
6118;DHT22;3089;48.202;11.510;2023-04-29T04:04:33;10.10;99.90
6118;DHT22;3089;48.202;11.510;2023-04-29T04:07:01;10.10;99.90
6118;DHT22;3089;48.202;11.510;2023-04-29T04:09:29;10.10;99.90
6118;DHT22;3089;48.202;11.510;2023-04-29T04:11:58;10.10;99.90
6118;DHT22;3089;48.202;11.510;2023-04-29T04:14:28;10.10;99.90
6118;DHT22;3089;48.202;11.510;2023-04-29T04:16:55;10.10;99.90
6118;DHT22;3089;48.202;11.510;2023-04-29T04:19:23;10.10;99.90
6118;DHT22;3089;48.202;11.510;2023-04-29T04:21:52;10.20;99.90
6118;DHT22;3089;48.202;11.510;2023-04-29T04:24:20;10.20;99.90
6118;DHT22;3089;48.202;11.510;2023-04-29T04:26:48;10.20;99.90
6118;DHT22;3089;48.202;11.510;2023-04-29T04:29:16;10.20;99.90
6118;DHT22;3089;48.202;11.510;2023-04-29T04:31:45;10.30;99.90
6118;DHT22;3089;48.202;11.510;2023-04-29T04:34:13;10.30;99.90
6118;DHT22;3089;48.202;11.510;2023-04-29T04:36:41;10.30;99.90
6118;DHT22;3089;48.202;11.510;2023-04-29T04:39:08;10.30;99.90
6118;DHT22;3089;48.202;11.510;2023-04-29T04:41:37;10.30;99.90
6118;DHT22;3089;48.202;11.510;2023-04-29T04:44:05;10.30;99.90
6118;DHT22;3089;48.202;11.510;2023-04-29T04:46:33;10.40;99.90
6118;DHT22;3089;48.202;11.510;2023-04-29T04:49:02;10.40;99.90
6118;DHT22;3089;48.202;11.510;2023-04-29T04:51:30;10.50;99.90
6118;DHT22;3089;48.202;11.510;2023-04-29T04:53:58;10.70;99.90
6118;DHT22;3089;48.202;11.510;2023-04-29T04:56:26;11.40;99.90
6118;DHT22;3089;48.202;11.510;2023-04-29T04:58:53;11.90;99.90
6118;DHT22;3089;48.202;11.510;2023-04-29T05:01:21;12.00;99.90
6118;DHT22;3089;48.202;11.510;2023-04-29T05:03:49;11.50;99.90
6118;DHT22;3089;48.202;11.510;2023-04-29T05:06:18;11.40;99.90
6118;DHT22;3089;48.202;11.510;2023-04-29T05:08:46;11.70;99.90
6118;DHT22;3089;48.202;11.510;2023-04-29T05:11:17;11.70;99.90
6118;DHT22;3089;48.202;11.510;2023-04-29T05:13:45;11.90;99.90
6118;DHT22;3089;48.202;11.510;2023-04-29T05:16:13;12.00;99.90
6118;DHT22;3089;48.202;11.510;2023-04-29T05:18:42;12.10;99.90
6118;DHT22;3089;48.202;11.510;2023-04-29T05:21:12;12.20;99.90
6118;DHT22;3089;48.202;11.510;2023-04-29T05:23:44;12.40;99.90
6118;DHT22;3089;48.202;11.510;2023-04-29T05:26:12;12.30;99.90
6118;DHT22;3089;48.202;11.510;2023-04-29T05:28:40;12.40;99.90
6118;DHT22;3089;48.202;11.510;2023-04-29T05:31:07;12.50;99.90
6118;DHT22;3089;48.202;11.510;2023-04-29T05:33:36;12.50;99.90
6118;DHT22;3089;48.202;11.510;2023-04-29T05:36:04;12.60;99.90
6118;DHT22;3089;48.202;11.510;2023-04-29T05:38:32;12.20;99.90
6118;DHT22;3089;48.202;11.510;2023-04-29T05:41:02;12.30;99.90
6118;DHT22;3089;48.202;11.510;2023-04-29T05:43:30;11.90;99.90
6118;DHT22;3089;48.202;11.510;2023-04-29T05:45:58;11.80;99.90
6118;DHT22;3089;48.202;11.510;2023-04-29T05:48:27;11.80;99.90
6118;DHT22;3089;48.202;11.510;2023-04-29T05:50:55;11.70;99.90
6118;DHT22;3089;48.202;11.510;2023-04-29T05:53:23;12.20;99.90
6118;DHT22;3089;48.202;11.510;2023-04-29T05:55:51;13.00;99.90
6118;DHT22;3089;48.202;11.510;2023-04-29T05:58:20;12.30;99.90
6118;DHT22;3089;48.202;11.510;2023-04-29T06:00:47;11.90;99.90
6118;DHT22;3089;48.202;11.510;2023-04-29T06:03:15;11.80;99.90
6118;DHT22;3089;48.202;11.510;2023-04-29T06:05:43;11.80;99.90
6118;DHT22;3089;48.202;11.510;2023-04-29T06:08:12;11.70;99.90
6118;DHT22;3089;48.202;11.510;2023-04-29T06:10:40;11.80;99.90
6118;DHT22;3089;48.202;11.510;2023-04-29T06:13:07;12.00;99.90
6118;DHT22;3089;48.202;11.510;2023-04-29T06:15:37;12.40;99.90
6118;DHT22;3089;48.202;11.510;2023-04-29T06:18:04;12.10;99.90
6118;DHT22;3089;48.202;11.510;2023-04-29T06:20:32;12.00;99.90
6118;DHT22;3089;48.202;11.510;2023-04-29T06:23:03;11.90;99.90
6118;DHT22;3089;48.202;11.510;2023-04-29T06:25:31;12.00;99.90
6118;DHT22;3089;48.202;11.510;2023-04-29T06:27:59;14.00;99.90
6118;DHT22;3089;48.202;11.510;2023-04-29T06:30:27;13.40;99.90
6118;DHT22;3089;48.202;11.510;2023-04-29T06:32:56;12.60;99.90
6118;DHT22;3089;48.202;11.510;2023-04-29T06:35:24;12.30;99.90
6118;DHT22;3089;48.202;11.510;2023-04-29T06:37:52;12.60;99.90
6118;DHT22;3089;48.202;11.510;2023-04-29T06:40:22;12.70;99.90
6118;DHT22;3089;48.202;11.510;2023-04-29T06:42:49;14.00;99.90
6118;DHT22;3089;48.202;11.510;2023-04-29T06:45:18;14.50;99.90
6118;DHT22;3089;48.202;11.510;2023-04-29T06:47:46;15.10;99.90
6118;DHT22;3089;48.202;11.510;2023-04-29T06:50:15;16.20;99.90
6118;DHT22;3089;48.202;11.510;2023-04-29T06:52:43;15.20;99.90
6118;DHT22;3089;48.202;11.510;2023-04-29T06:55:11;14.70;99.90
6118;DHT22;3089;48.202;11.510;2023-04-29T06:57:39;14.30;99.90
6118;DHT22;3089;48.202;11.510;2023-04-29T07:00:08;13.70;99.90
6118;DHT22;3089;48.202;11.510;2023-04-29T07:02:35;15.20;99.90
6118;DHT22;3089;48.202;11.510;2023-04-29T07:05:05;14.50;99.90
6118;DHT22;3089;48.202;11.510;2023-04-29T07:07:35;13.80;99.90
6118;DHT22;3089;48.202;11.510;2023-04-29T07:10:03;13.80;99.90
6118;DHT22;3089;48.202;11.510;2023-04-29T07:12:31;13.80;99.90
6118;DHT22;3089;48.202;11.510;2023-04-29T07:14:58;16.10;99.90
6118;DHT22;3089;48.202;11.510;2023-04-29T07:17:28;15.00;99.90
6118;DHT22;3089;48.202;11.510;2023-04-29T07:19:57;13.90;99.90
6118;DHT22;3089;48.202;11.510;2023-04-29T07:22:25;13.80;99.90
6118;DHT22;3089;48.202;11.510;2023-04-29T07:24:54;14.00;99.90
6118;DHT22;3089;48.202;11.510;2023-04-29T07:27:22;14.20;99.90
6118;DHT22;3089;48.202;11.510;2023-04-29T07:29:50;13.60;99.90
6118;DHT22;3089;48.202;11.510;2023-04-29T07:32:18;14.10;99.90
6118;DHT22;3089;48.202;11.510;2023-04-29T07:34:46;13.80;99.90
6118;DHT22;3089;48.202;11.510;2023-04-29T07:37:14;15.30;99.90
6118;DHT22;3089;48.202;11.510;2023-04-29T07:39:42;14.30;99.90
6118;DHT22;3089;48.202;11.510;2023-04-29T07:42:11;14.70;99.90
6118;DHT22;3089;48.202;11.510;2023-04-29T07:44:39;14.70;99.90
6118;DHT22;3089;48.202;11.510;2023-04-29T07:47:07;16.30;99.90
6118;DHT22;3089;48.202;11.510;2023-04-29T07:49:34;15.60;99.90
6118;DHT22;3089;48.202;11.510;2023-04-29T07:52:03;15.40;99.90
6118;DHT22;3089;48.202;11.510;2023-04-29T07:54:31;14.30;99.90
6118;DHT22;3089;48.202;11.510;2023-04-29T07:56:59;15.30;99.90
6118;DHT22;3089;48.202;11.510;2023-04-29T07:59:30;15.40;99.90
6118;DHT22;3089;48.202;11.510;2023-04-29T08:01:58;16.90;99.90
6118;DHT22;3089;48.202;11.510;2023-04-29T08:04:26;17.30;99.90
6118;DHT22;3089;48.202;11.510;2023-04-29T08:06:54;17.80;99.90
6118;DHT22;3089;48.202;11.510;2023-04-29T08:09:22;17.30;99.90
6118;DHT22;3089;48.202;11.510;2023-04-29T08:11:50;18.10;99.90
6118;DHT22;3089;48.202;11.510;2023-04-29T08:14:18;17.50;99.90
6118;DHT22;3089;48.202;11.510;2023-04-29T08:16:47;17.80;99.90
6118;DHT22;3089;48.202;11.510;2023-04-29T08:19:15;17.50;99.90
6118;DHT22;3089;48.202;11.510;2023-04-29T08:21:43;16.60;99.90
6118;DHT22;3089;48.202;11.510;2023-04-29T08:24:11;16.20;99.90
6118;DHT22;3089;48.202;11.510;2023-04-29T08:26:39;16.60;99.90
6118;DHT22;3089;48.202;11.510;2023-04-29T08:29:07;16.40;99.90
6118;DHT22;3089;48.202;11.510;2023-04-29T08:31:35;15.90;99.90
6118;DHT22;3089;48.202;11.510;2023-04-29T08:34:04;15.60;99.90
6118;DHT22;3089;48.202;11.510;2023-04-29T08:36:32;15.30;99.90
6118;DHT22;3089;48.202;11.510;2023-04-29T08:39:00;15.30;99.90
6118;DHT22;3089;48.202;11.510;2023-04-29T08:41:29;17.60;99.90
6118;DHT22;3089;48.202;11.510;2023-04-29T08:43:58;17.20;99.90
6118;DHT22;3089;48.202;11.510;2023-04-29T08:46:26;17.80;99.90
6118;DHT22;3089;48.202;11.510;2023-04-29T08:48:55;16.20;99.90
6118;DHT22;3089;48.202;11.510;2023-04-29T08:51:25;15.80;99.90
6118;DHT22;3089;48.202;11.510;2023-04-29T08:53:54;15.80;99.90
6118;DHT22;3089;48.202;11.510;2023-04-29T08:56:22;15.60;99.90
6118;DHT22;3089;48.202;11.510;2023-04-29T08:58:54;15.30;99.90
6118;DHT22;3089;48.202;11.510;2023-04-29T09:01:26;16.70;99.90
6118;DHT22;3089;48.202;11.510;2023-04-29T09:04:03;17.00;99.90
6118;DHT22;3089;48.202;11.510;2023-04-29T09:06:35;16.90;99.90
6118;DHT22;3089;48.202;11.510;2023-04-29T09:09:04;16.60;99.90
6118;DHT22;3089;48.202;11.510;2023-04-29T09:11:33;16.20;99.90
6118;DHT22;3089;48.202;11.510;2023-04-29T09:14:02;15.90;99.90
6118;DHT22;3089;48.202;11.510;2023-04-29T09:16:31;17.10;99.90
6118;DHT22;3089;48.202;11.510;2023-04-29T09:18:59;17.70;99.90
6118;DHT22;3089;48.202;11.510;2023-04-29T09:21:27;19.10;99.90
6118;DHT22;3089;48.202;11.510;2023-04-29T09:24:00;18.80;99.90
6118;DHT22;3089;48.202;11.510;2023-04-29T09:26:40;17.80;99.90
6118;DHT22;3089;48.202;11.510;2023-04-29T09:29:09;17.90;99.90
6118;DHT22;3089;48.202;11.510;2023-04-29T09:31:40;18.10;99.90
6118;DHT22;3089;48.202;11.510;2023-04-29T09:34:09;18.40;99.90
6118;DHT22;3089;48.202;11.510;2023-04-29T09:36:39;18.80;99.90
6118;DHT22;3089;48.202;11.510;2023-04-29T09:39:10;19.30;99.90
6118;DHT22;3089;48.202;11.510;2023-04-29T09:41:40;19.50;99.90
6118;DHT22;3089;48.202;11.510;2023-04-29T09:44:09;19.50;99.90
6118;DHT22;3089;48.202;11.510;2023-04-29T09:46:37;19.90;99.90
6118;DHT22;3089;48.202;11.510;2023-04-29T09:49:21;19.60;99.90
6118;DHT22;3089;48.202;11.510;2023-04-29T09:51:54;20.00;99.90
6118;DHT22;3089;48.202;11.510;2023-04-29T09:54:25;19.40;99.90
6118;DHT22;3089;48.202;11.510;2023-04-29T09:56:54;18.50;99.90
6118;DHT22;3089;48.202;11.510;2023-04-29T09:59:23;17.30;99.90
6118;DHT22;3089;48.202;11.510;2023-04-29T10:01:52;16.80;99.90
6118;DHT22;3089;48.202;11.510;2023-04-29T10:04:21;17.00;99.90
6118;DHT22;3089;48.202;11.510;2023-04-29T10:06:51;17.70;99.90
6118;DHT22;3089;48.202;11.510;2023-04-29T10:09:20;18.40;99.90
6118;DHT22;3089;48.202;11.510;2023-04-29T10:11:51;18.70;99.90
6118;DHT22;3089;48.202;11.510;2023-04-29T10:14:21;19.10;99.90
6118;DHT22;3089;48.202;11.510;2023-04-29T10:16:57;18.80;99.90
6118;DHT22;3089;48.202;11.510;2023-04-29T10:19:32;19.10;99.90
6118;DHT22;3089;48.202;11.510;2023-04-29T10:22:06;19.10;99.90
6118;DHT22;3089;48.202;11.510;2023-04-29T10:24:36;19.00;99.90
6118;DHT22;3089;48.202;11.510;2023-04-29T10:27:06;18.30;99.90
6118;DHT22;3089;48.202;11.510;2023-04-29T10:29:36;18.60;99.90
6118;DHT22;3089;48.202;11.510;2023-04-29T10:32:08;18.70;99.90
6118;DHT22;3089;48.202;11.510;2023-04-29T10:34:37;19.20;99.90
6118;DHT22;3089;48.202;11.510;2023-04-29T10:37:07;19.20;99.90
6118;DHT22;3089;48.202;11.510;2023-04-29T10:39:41;19.40;99.90
6118;DHT22;3089;48.202;11.510;2023-04-29T10:42:20;19.00;99.90
6118;DHT22;3089;48.202;11.510;2023-04-29T10:45:19;19.00;99.90
6118;DHT22;3089;48.202;11.510;2023-04-29T10:48:09;18.70;99.90
6118;DHT22;3089;48.202;11.510;2023-04-29T10:51:00;18.50;99.90
6118;DHT22;3089;48.202;11.510;2023-04-29T10:53:31;18.60;99.90
6118;DHT22;3089;48.202;11.510;2023-04-29T10:56:04;18.40;99.90
6118;DHT22;3089;48.202;11.510;2023-04-29T10:58:41;17.90;99.90
6118;DHT22;3089;48.202;11.510;2023-04-29T11:01:11;17.90;99.90
6118;DHT22;3089;48.202;11.510;2023-04-29T11:03:47;18.80;99.90
6118;DHT22;3089;48.202;11.510;2023-04-29T11:06:16;19.20;99.90
6118;DHT22;3089;48.202;11.510;2023-04-29T11:08:44;19.50;99.90
6118;DHT22;3089;48.202;11.510;2023-04-29T11:11:15;18.80;99.90
6118;DHT22;3089;48.202;11.510;2023-04-29T11:13:46;18.60;99.90
6118;DHT22;3089;48.202;11.510;2023-04-29T11:16:14;18.50;99.90
6118;DHT22;3089;48.202;11.510;2023-04-29T11:19:04;18.60;99.90
6118;DHT22;3089;48.202;11.510;2023-04-29T11:21:33;18.10;99.90
6118;DHT22;3089;48.202;11.510;2023-04-29T11:24:02;17.90;99.90
6118;DHT22;3089;48.202;11.510;2023-04-29T11:26:32;17.70;99.90
6118;DHT22;3089;48.202;11.510;2023-04-29T11:29:02;17.50;99.90
6118;DHT22;3089;48.202;11.510;2023-04-29T11:31:31;17.90;99.90
6118;DHT22;3089;48.202;11.510;2023-04-29T11:34:00;17.90;99.90
6118;DHT22;3089;48.202;11.510;2023-04-29T11:36:30;17.80;99.90
6118;DHT22;3089;48.202;11.510;2023-04-29T11:38:59;17.80;99.90
6118;DHT22;3089;48.202;11.510;2023-04-29T11:41:28;18.20;99.90
6118;DHT22;3089;48.202;11.510;2023-04-29T11:43:58;18.50;99.90
6118;DHT22;3089;48.202;11.510;2023-04-29T11:46:30;19.00;99.90
6118;DHT22;3089;48.202;11.510;2023-04-29T11:48:58;18.80;99.90
6118;DHT22;3089;48.202;11.510;2023-04-29T11:51:27;19.00;99.90
6118;DHT22;3089;48.202;11.510;2023-04-29T11:53:56;19.20;99.90
6118;DHT22;3089;48.202;11.510;2023-04-29T11:56:24;19.10;99.90
6118;DHT22;3089;48.202;11.510;2023-04-29T11:58:55;18.90;99.90
6118;DHT22;3089;48.202;11.510;2023-04-29T12:01:24;18.70;99.90
6118;DHT22;3089;48.202;11.510;2023-04-29T12:03:57;18.60;99.90
6118;DHT22;3089;48.202;11.510;2023-04-29T12:06:27;18.80;99.90
6118;DHT22;3089;48.202;11.510;2023-04-29T12:08:57;18.60;99.90
6118;DHT22;3089;48.202;11.510;2023-04-29T12:11:26;18.60;99.90
6118;DHT22;3089;48.202;11.510;2023-04-29T12:13:54;18.50;99.90
6118;DHT22;3089;48.202;11.510;2023-04-29T12:16:23;18.60;99.90
6118;DHT22;3089;48.202;11.510;2023-04-29T12:18:52;18.60;99.90
6118;DHT22;3089;48.202;11.510;2023-04-29T12:21:22;18.50;99.90
6118;DHT22;3089;48.202;11.510;2023-04-29T12:23:50;18.50;99.90
6118;DHT22;3089;48.202;11.510;2023-04-29T12:26:18;18.50;99.90
6118;DHT22;3089;48.202;11.510;2023-04-29T12:28:47;18.10;99.90
6118;DHT22;3089;48.202;11.510;2023-04-29T12:31:15;18.60;99.90
6118;DHT22;3089;48.202;11.510;2023-04-29T12:33:44;18.60;99.90
6118;DHT22;3089;48.202;11.510;2023-04-29T12:36:15;18.60;99.90
6118;DHT22;3089;48.202;11.510;2023-04-29T12:38:46;18.80;99.90
6118;DHT22;3089;48.202;11.510;2023-04-29T12:41:14;18.20;99.90
6118;DHT22;3089;48.202;11.510;2023-04-29T12:43:43;18.30;99.90
6118;DHT22;3089;48.202;11.510;2023-04-29T12:46:10;18.70;99.90
6118;DHT22;3089;48.202;11.510;2023-04-29T12:48:40;18.90;99.90
6118;DHT22;3089;48.202;11.510;2023-04-29T12:51:09;18.90;99.90
6118;DHT22;3089;48.202;11.510;2023-04-29T12:53:37;18.60;99.90
6118;DHT22;3089;48.202;11.510;2023-04-29T12:56:07;18.50;99.90
6118;DHT22;3089;48.202;11.510;2023-04-29T12:58:34;18.40;99.90
6118;DHT22;3089;48.202;11.510;2023-04-29T13:01:02;18.70;99.90
6118;DHT22;3089;48.202;11.510;2023-04-29T13:03:30;18.40;99.90
6118;DHT22;3089;48.202;11.510;2023-04-29T13:05:59;18.90;99.90
6118;DHT22;3089;48.202;11.510;2023-04-29T13:08:28;18.80;99.90
6118;DHT22;3089;48.202;11.510;2023-04-29T13:10:56;18.80;99.90
6118;DHT22;3089;48.202;11.510;2023-04-29T13:13:25;19.00;99.90
6118;DHT22;3089;48.202;11.510;2023-04-29T13:15:53;19.30;99.90
6118;DHT22;3089;48.202;11.510;2023-04-29T13:18:21;19.40;99.90
6118;DHT22;3089;48.202;11.510;2023-04-29T13:20:48;19.10;99.90
6118;DHT22;3089;48.202;11.510;2023-04-29T13:23:19;19.30;99.90
6118;DHT22;3089;48.202;11.510;2023-04-29T13:25:47;18.70;99.90
6118;DHT22;3089;48.202;11.510;2023-04-29T13:28:16;19.20;99.90
6118;DHT22;3089;48.202;11.510;2023-04-29T13:30:46;18.90;99.90
6118;DHT22;3089;48.202;11.510;2023-04-29T13:33:13;18.80;99.90
6118;DHT22;3089;48.202;11.510;2023-04-29T13:35:41;18.60;99.90
6118;DHT22;3089;48.202;11.510;2023-04-29T13:38:09;18.80;99.90
6118;DHT22;3089;48.202;11.510;2023-04-29T13:40:37;18.90;99.90
6118;DHT22;3089;48.202;11.510;2023-04-29T13:43:12;19.00;99.90
6118;DHT22;3089;48.202;11.510;2023-04-29T13:45:51;19.20;99.90
6118;DHT22;3089;48.202;11.510;2023-04-29T13:48:21;19.30;99.90
6118;DHT22;3089;48.202;11.510;2023-04-29T13:51:09;19.00;99.90
6118;DHT22;3089;48.202;11.510;2023-04-29T13:53:57;19.00;99.90
6118;DHT22;3089;48.202;11.510;2023-04-29T13:56:28;18.80;99.90
6118;DHT22;3089;48.202;11.510;2023-04-29T13:59:16;19.30;99.90
6118;DHT22;3089;48.202;11.510;2023-04-29T14:01:48;19.20;99.90
6118;DHT22;3089;48.202;11.510;2023-04-29T14:04:19;18.90;99.90
6118;DHT22;3089;48.202;11.510;2023-04-29T14:06:47;19.00;99.90
6118;DHT22;3089;48.202;11.510;2023-04-29T14:09:15;18.40;99.90
6118;DHT22;3089;48.202;11.510;2023-04-29T14:11:44;18.40;99.90
6118;DHT22;3089;48.202;11.510;2023-04-29T14:14:12;19.10;99.90
6118;DHT22;3089;48.202;11.510;2023-04-29T14:16:40;18.60;99.90
6118;DHT22;3089;48.202;11.510;2023-04-29T14:19:09;18.40;99.90
6118;DHT22;3089;48.202;11.510;2023-04-29T14:21:37;18.40;99.90
6118;DHT22;3089;48.202;11.510;2023-04-29T14:24:05;18.70;99.90
6118;DHT22;3089;48.202;11.510;2023-04-29T14:26:33;19.00;99.90
6118;DHT22;3089;48.202;11.510;2023-04-29T14:29:02;18.60;99.90
6118;DHT22;3089;48.202;11.510;2023-04-29T14:31:32;18.70;99.90
6118;DHT22;3089;48.202;11.510;2023-04-29T14:34:01;18.40;99.90
6118;DHT22;3089;48.202;11.510;2023-04-29T14:36:30;18.70;99.90
6118;DHT22;3089;48.202;11.510;2023-04-29T14:38:59;18.50;99.90
6118;DHT22;3089;48.202;11.510;2023-04-29T14:41:27;18.10;99.90
6118;DHT22;3089;48.202;11.510;2023-04-29T14:43:55;18.30;99.90
6118;DHT22;3089;48.202;11.510;2023-04-29T14:46:23;18.50;99.90
6118;DHT22;3089;48.202;11.510;2023-04-29T14:48:51;18.00;99.90
6118;DHT22;3089;48.202;11.510;2023-04-29T14:51:19;17.90;99.90
6118;DHT22;3089;48.202;11.510;2023-04-29T14:53:48;18.00;99.90
6118;DHT22;3089;48.202;11.510;2023-04-29T14:56:17;18.00;99.90
6118;DHT22;3089;48.202;11.510;2023-04-29T14:58:44;17.90;99.90
6118;DHT22;3089;48.202;11.510;2023-04-29T15:01:12;17.60;99.90
6118;DHT22;3089;48.202;11.510;2023-04-29T15:03:40;17.60;99.90
6118;DHT22;3089;48.202;11.510;2023-04-29T15:06:10;17.60;99.90
6118;DHT22;3089;48.202;11.510;2023-04-29T15:08:38;17.90;99.90
6118;DHT22;3089;48.202;11.510;2023-04-29T15:11:08;17.90;99.90
6118;DHT22;3089;48.202;11.510;2023-04-29T15:13:35;17.80;99.90
6118;DHT22;3089;48.202;11.510;2023-04-29T15:16:05;17.80;99.90
6118;DHT22;3089;48.202;11.510;2023-04-29T15:18:34;17.80;99.90
6118;DHT22;3089;48.202;11.510;2023-04-29T15:21:02;17.50;99.90
6118;DHT22;3089;48.202;11.510;2023-04-29T15:23:30;17.80;99.90
6118;DHT22;3089;48.202;11.510;2023-04-29T15:25:58;17.50;99.90
6118;DHT22;3089;48.202;11.510;2023-04-29T15:28:28;17.10;99.90
6118;DHT22;3089;48.202;11.510;2023-04-29T15:30:55;17.20;99.90
6118;DHT22;3089;48.202;11.510;2023-04-29T15:33:25;17.00;99.90
6118;DHT22;3089;48.202;11.510;2023-04-29T15:35:55;17.20;99.90
6118;DHT22;3089;48.202;11.510;2023-04-29T15:38:23;17.10;99.90
6118;DHT22;3089;48.202;11.510;2023-04-29T15:40:51;17.00;99.90
6118;DHT22;3089;48.202;11.510;2023-04-29T15:43:24;17.40;99.90
6118;DHT22;3089;48.202;11.510;2023-04-29T15:45:53;17.20;99.90
6118;DHT22;3089;48.202;11.510;2023-04-29T15:48:22;17.30;99.90
6118;DHT22;3089;48.202;11.510;2023-04-29T15:50:50;17.40;99.90
6118;DHT22;3089;48.202;11.510;2023-04-29T15:53:19;17.20;99.90
6118;DHT22;3089;48.202;11.510;2023-04-29T15:55:47;17.20;99.90
6118;DHT22;3089;48.202;11.510;2023-04-29T15:58:15;17.00;99.90